Time;durP1;ratioP1;P1;durP2;ratioP2;P2;SDS_P1;SDS_P2;PMS_P1;PMS_P2;Temp;Humidity;BMP_temperature;BMP_pressure;BME280_temperature;BME280_humidity;BME280_pressure;Samples;Min_cycle;Max_cycle;Signal;HPM_P1;HPM_P2
2022/05/02 00:01:56;;;;;;;24.42;15.85;;;;;;;7.38;99.53;102211.66;5094139;28;20082;-51
2022/05/02 00:04:21;;;;;;;24.83;16.67;;;;;;;7.36;99.88;102199.41;5075130;28;20020;-54
2022/05/02 00:06:46;;;;;;;21.58;15.38;;;;;;;7.37;99.46;102202.00;5092790;28;20052;-54
2022/05/02 00:09:12;;;;;;;24.10;15.80;;;;;;;7.37;99.53;102203.78;5092145;28;20067;-54
2022/05/02 00:11:37;;;;;;;24.02;15.85;;;;;;;7.37;99.88;102212.56;5093475;28;20082;-53
2022/05/02 00:14:02;;;;;;;21.90;14.93;;;;;;;7.33;99.23;102213.47;5074749;28;20024;-50
2022/05/02 00:16:28;;;;;;;21.17;14.98;;;;;;;7.29;99.17;102205.59;5092667;28;20051;-50
2022/05/02 00:18:53;;;;;;;19.27;13.60;;;;;;;7.28;99.46;102210.00;5074304;28;20036;-51
2022/05/02 00:21:19;;;;;;;21.02;13.77;;;;;;;7.27;99.69;102207.41;5074430;28;20031;-54
2022/05/02 00:23:44;;;;;;;21.77;13.32;;;;;;;7.26;99.85;102209.13;5082150;28;20028;-53
2022/05/02 00:26:09;;;;;;;17.33;12.60;;;;;;;7.29;99.25;102200.31;5057860;28;20073;-54
2022/05/02 00:28:35;;;;;;;20.55;13.35;;;;;;;7.28;99.79;102202.09;5092393;28;20043;-52
2022/05/02 00:31:00;;;;;;;20.10;12.68;;;;;;;7.30;99.71;102195.06;5092301;28;20776;-51
2022/05/02 00:33:26;;;;;;;18.88;12.50;;;;;;;7.28;100.00;102190.69;5093759;28;20024;-49
2022/05/02 00:35:51;;;;;;;18.38;12.52;;;;;;;7.25;100.00;102194.25;5092447;28;20040;-54
2022/05/02 00:38:16;;;;;;;16.27;11.25;;;;;;;7.23;100.00;102193.38;5092302;28;20024;-54
2022/05/02 00:40:42;;;;;;;15.43;11.13;;;;;;;7.25;100.00;102201.25;5092009;28;20024;-54
2022/05/02 00:43:07;;;;;;;18.83;11.40;;;;;;;7.24;100.00;102189.84;5081604;28;20036;-53
2022/05/02 00:45:39;;;;;;;17.67;11.30;;;;;;;7.22;100.00;102187.25;5094881;28;20073;-55
2022/05/02 00:48:06;;;;;;;16.45;10.35;;;;;;;7.24;100.00;102181.94;5094869;28;20024;-53
2022/05/02 00:50:43;;;;;;;17.20;10.82;;;;;;;7.32;100.00;102181.88;5064693;28;20522;-49
2022/05/02 00:53:12;;;;;;;14.55;9.85;;;;;;;7.31;100.00;102175.72;5080930;28;20019;-53
2022/05/02 00:55:38;;;;;;;15.30;9.85;;;;;;;7.31;100.00;102174.84;5112263;28;20035;-51
2022/05/02 00:58:04;;;;;;;15.52;9.65;;;;;;;7.27;100.00;102181.03;5112448;28;20030;-54
2022/05/02 01:00:31;;;;;;;16.17;10.25;;;;;;;7.22;100.00;102181.97;5087797;28;20123;-49
2022/05/02 01:02:56;;;;;;;14.73;9.68;;;;;;;7.21;100.00;102179.31;5092040;28;20028;-51
2022/05/02 01:05:22;;;;;;;16.65;10.27;;;;;;;7.18;100.00;102179.38;5093400;28;20364;-51
2022/05/02 01:07:47;;;;;;;14.35;9.63;;;;;;;7.19;100.00;102174.06;5112312;28;20032;-53
2022/05/02 01:10:17;;;;;;;13.18;9.63;;;;;;;7.18;100.00;102177.59;5092712;28;20512;-51
2022/05/02 01:12:43;;;;;;;13.57;9.40;;;;;;;7.17;100.00;102177.63;5075037;28;20028;-52
2022/05/02 01:15:09;;;;;;;12.90;9.13;;;;;;;7.15;100.00;102166.22;5092050;28;20062;-52
2022/05/02 01:17:37;;;;;;;13.70;9.50;;;;;;;7.14;100.00;102175.03;5091948;28;20066;-50
2022/05/02 01:20:06;;;;;;;15.55;9.85;;;;;;;7.12;100.00;102168.88;5091876;28;20024;-51
2022/05/02 01:22:31;;;;;;;16.17;9.25;;;;;;;7.10;100.00;102171.53;5086928;28;20023;-53
2022/05/02 01:24:57;;;;;;;14.15;9.18;;;;;;;7.09;100.00;102175.03;5093004;28;20051;-54
2022/05/02 01:27:22;;;;;;;14.80;9.70;;;;;;;7.06;100.00;102177.72;5095904;28;20036;-53
2022/05/02 01:29:47;;;;;;;13.80;9.60;;;;;;;7.07;100.00;102178.59;5096229;28;20054;-52
2022/05/02 01:32:15;;;;;;;14.00;9.43;;;;;;;6.99;100.00;102170.75;5061797;28;20028;-55
2022/05/02 01:34:42;;;;;;;15.43;9.07;;;;;;;6.94;100.00;102169.91;5077856;28;20441;-57
2022/05/02 01:37:09;;;;;;;14.73;10.23;;;;;;;6.87;100.00;102167.31;5077752;28;20074;-53
2022/05/02 01:39:35;;;;;;;14.75;9.45;;;;;;;6.87;100.00;102163.84;5095885;28;20479;-56
2022/05/02 01:42:05;;;;;;;14.57;9.43;;;;;;;6.83;100.00;102159.44;5077634;28;20028;-54
2022/05/02 01:44:31;;;;;;;13.77;9.70;;;;;;;6.80;100.00;102164.75;5060685;28;20127;-54
2022/05/02 01:46:57;;;;;;;15.30;9.52;;;;;;;6.79;100.00;102160.38;5075495;28;20062;-55
2022/05/02 01:49:23;;;;;;;16.80;10.20;;;;;;;6.76;100.00;102149.88;5085998;28;20024;-55
2022/05/02 01:51:49;;;;;;;14.95;9.90;;;;;;;6.73;100.00;102156.91;5095650;28;20028;-54
2022/05/02 01:54:15;;;;;;;13.88;9.40;;;;;;;6.69;100.00;102152.53;5096648;28;20036;-55
2022/05/02 01:56:40;;;;;;;13.52;9.45;;;;;;;6.66;100.00;102156.94;5095606;28;20047;-56
2022/05/02 01:59:06;;;;;;;14.43;9.98;;;;;;;6.62;100.00;102152.59;5095140;28;20519;-56
2022/05/02 02:01:32;;;;;;;14.20;9.77;;;;;;;6.61;100.00;102159.66;5095298;28;20036;-55
2022/05/02 02:05:48;;;;;;;13.80;9.32;;;;;;;6.59;100.00;102150.00;5096540;28;20023;-54
2022/05/02 02:06:48;;;;;;;19.17;10.57;;;;;;;6.55;100.00;102157.03;5095398;28;20484;-53
2022/05/02 02:09:14;;;;;;;16.40;9.50;;;;;;;6.56;100.00;102150.91;5094179;28;20038;-55
2022/05/02 02:11:39;;;;;;;16.50;10.68;;;;;;;6.54;100.00;102137.72;5094852;28;20119;-55
2022/05/02 02:14:04;;;;;;;18.20;9.95;;;;;;;6.54;100.00;102144.75;5096365;28;20069;-54
2022/05/02 02:16:30;;;;;;;16.38;10.43;;;;;;;6.52;100.00;102149.16;5060291;28;20028;-55
2022/05/02 02:18:55;;;;;;;15.95;10.20;;;;;;;6.49;100.00;102141.28;5076580;28;20028;-54
2022/05/02 02:21:20;;;;;;;16.30;10.13;;;;;;;6.47;100.00;102150.94;5094635;28;20044;-56
2022/05/02 02:23:46;;;;;;;14.48;10.02;;;;;;;6.44;100.00;102143.94;5094910;28;20028;-55
2022/05/02 02:26:11;;;;;;;15.35;10.57;;;;;;;6.43;100.00;102159.75;5077711;28;20035;-55
2022/05/02 02:28:38;;;;;;;15.43;9.55;;;;;;;6.38;100.00;102143.97;5076437;28;20039;-54
2022/05/02 02:31:03;;;;;;;16.23;10.30;;;;;;;6.35;100.00;102150.13;5094456;28;20028;-56
2022/05/02 02:33:29;;;;;;;16.83;10.57;;;;;;;6.32;100.00;102142.28;5094817;28;20095;-54
2022/05/02 02:35:54;;;;;;;18.15;10.27;;;;;;;6.31;100.00;102142.28;5076165;28;20062;-55
2022/05/02 02:38:20;;;;;;;17.63;9.75;;;;;;;6.29;100.00;102144.03;5093765;28;20071;-55
2022/05/02 02:40:45;;;;;;;15.50;10.25;;;;;;;6.27;100.00;102145.81;5075362;28;20038;-55
2022/05/02 02:43:10;;;;;;;15.98;9.90;;;;;;;6.25;100.00;102151.06;5094206;28;20044;-56
2022/05/02 02:45:37;;;;;;;15.55;10.43;;;;;;;6.20;100.00;102140.59;5061123;28;20131;-53
2022/05/02 02:48:03;;;;;;;15.73;10.15;;;;;;;6.17;100.00;102143.22;5059980;28;20114;-54
2022/05/02 02:50:29;;;;;;;16.38;10.13;;;;;;;6.15;100.00;102144.13;5094209;28;20032;-55
2022/05/02 02:52:54;;;;;;;15.82;11.00;;;;;;;6.13;100.00;102138.88;5094340;28;20467;-55
2022/05/02 02:55:19;;;;;;;16.50;11.00;;;;;;;6.11;100.00;102132.72;5094374;28;20031;-54
2022/05/02 02:57:45;;;;;;;15.35;10.18;;;;;;;6.11;100.00;102137.13;5077244;28;20032;-55
2022/05/02 03:00:11;;;;;;;17.05;10.07;;;;;;;6.07;100.00;102136.28;5094156;28;20032;-52
2022/05/02 03:02:38;;;;;;;17.20;10.23;;;;;;;6.03;100.00;102135.41;5075780;28;20097;-55
2022/05/02 03:07:47;;;;;;;18.35;10.82;;;;;;;5.98;100.00;102131.94;5095486;28;20035;-55
2022/05/02 03:10:13;;;;;;;17.15;10.63;;;;;;;5.95;100.00;102131.91;5094012;28;20036;-54
2022/05/02 03:12:39;;;;;;;16.65;10.68;;;;;;;5.94;100.00;102134.56;5093667;28;20077;-55
2022/05/02 03:15:05;;;;;;;15.10;10.05;;;;;;;5.95;100.00;102120.53;5094080;28;20035;-55
2022/05/02 03:17:30;;;;;;;14.98;9.77;;;;;;;5.94;100.00;102127.53;5077092;28;20093;-56
2022/05/02 03:19:56;;;;;;;15.75;10.73;;;;;;;5.95;100.00;102131.91;5094049;28;20032;-54
2022/05/02 03:22:21;;;;;;;16.13;10.32;;;;;;;5.95;100.00;102128.44;5093341;28;20044;-55
2022/05/02 03:24:46;;;;;;;17.15;11.00;;;;;;;5.93;100.00;102127.56;5075637;28;20076;-54
2022/05/02 03:27:12;;;;;;;16.90;10.32;;;;;;;5.89;100.00;102126.69;5093801;28;20062;-52
2022/05/02 03:29:37;;;;;;;14.85;10.15;;;;;;;5.87;100.00;102124.06;5076525;28;20032;-53
2022/05/02 03:32:03;;;;;;;16.15;10.90;;;;;;;5.88;100.00;102120.56;5093360;28;20044;-53
2022/05/02 03:34:28;;;;;;;15.52;9.63;;;;;;;5.88;100.00;102119.66;5093199;28;20027;-56
2022/05/02 03:36:54;;;;;;;15.27;10.00;;;;;;;5.87;100.00;102121.44;5093582;28;20028;-56
2022/05/02 03:39:19;;;;;;;15.38;10.38;;;;;;;5.85;100.00;102125.81;5094546;28;20475;-50
2022/05/02 03:41:44;;;;;;;15.50;10.27;;;;;;;5.85;100.00;102122.34;5075277;28;20441;-52
2022/05/02 03:44:10;;;;;;;15.65;10.60;;;;;;;5.83;100.00;102122.34;5074885;28;20499;-54
2022/05/02 03:46:35;;;;;;;17.10;11.13;;;;;;;5.81;100.00;102113.56;5058241;28;20554;-54
2022/05/02 03:49:01;;;;;;;16.33;10.63;;;;;;;5.80;100.00;102124.97;5076554;28;20024;-50
2022/05/02 03:51:27;;;;;;;15.68;10.60;;;;;;;5.80;100.00;102113.59;5092986;28;20038;-51
2022/05/02 03:53:52;;;;;;;16.77;10.38;;;;;;;5.81;100.00;102116.22;5092819;28;20487;-54
2022/05/02 03:56:18;;;;;;;14.60;9.85;;;;;;;5.81;100.00;102125.84;5093184;28;20028;-53
2022/05/02 03:58:43;;;;;;;16.95;10.32;;;;;;;5.80;100.00;102122.34;5093182;28;20020;-53
2022/05/02 04:01:08;;;;;;;15.23;10.02;;;;;;;5.79;100.00;102115.31;5093924;28;20111;-56
2022/05/02 04:03:34;;;;;;;16.80;10.38;;;;;;;5.81;100.00;102118.84;5093055;28;20070;-50
2022/05/02 04:05:59;;;;;;;15.95;10.55;;;;;;;5.78;100.00;102121.50;5058450;28;20123;-52
2022/05/02 04:08:24;;;;;;;17.42;11.25;;;;;;;5.75;100.00;102121.47;5057910;28;20861;-52
2022/05/02 04:10:50;;;;;;;17.65;10.32;;;;;;;5.72;100.00;102117.13;5059034;28;20050;-53
2022/05/02 04:13:15;;;;;;;15.25;10.43;;;;;;;5.68;100.00;102119.78;5092690;28;20032;-50
2022/05/02 04:15:41;;;;;;;15.95;11.00;;;;;;;5.68;100.00;102122.41;5092132;28;20052;-52
2022/05/02 04:18:06;;;;;;;18.38;11.23;;;;;;;5.67;100.00;102123.28;5092708;28;20024;-54
2022/05/02 04:20:32;;;;;;;19.98;11.90;;;;;;;5.67;100.00;102134.66;5076000;28;20088;-55
2022/05/02 04:22:57;;;;;;;18.65;11.73;;;;;;;5.66;100.00;102124.16;5074331;28;20040;-52
2022/05/02 04:25:23;;;;;;;16.55;11.32;;;;;;;5.66;100.00;102140.78;5092502;28;20020;-54
2022/05/02 04:27:48;;;;;;;17.77;11.43;;;;;;;5.66;100.00;102140.78;5074530;28;20081;-52
2022/05/02 04:30:14;;;;;;;16.90;11.20;;;;;;;5.68;100.00;102138.19;5092713;28;20390;-51
2022/05/02 04:32:39;;;;;;;19.23;11.57;;;;;;;5.67;100.00;102139.06;5093477;28;20016;-54
2022/05/02 04:35:05;;;;;;;17.27;11.68;;;;;;;5.66;100.00;102135.53;5074153;28;20035;-52
2022/05/02 04:37:31;;;;;;;18.08;12.13;;;;;;;5.69;100.00;102138.16;5092289;28;20031;-54
2022/05/02 04:39:56;;;;;;;17.98;11.75;;;;;;;5.71;100.00;102135.53;5092402;28;20054;-51
2022/05/02 04:42:22;;;;;;;19.63;12.35;;;;;;;5.76;100.00;102139.00;5074982;28;20028;-53
2022/05/02 04:44:47;;;;;;;20.25;12.82;;;;;;;5.79;100.00;102146.00;5092020;28;20047;-52
2022/05/02 04:47:13;;;;;;;18.33;11.50;;;;;;;5.80;100.00;102132.84;5073821;28;20043;-51
2022/05/02 04:49:38;;;;;;;19.95;12.93;;;;;;;5.83;100.00;102134.59;5074171;28;20020;-55
2022/05/02 04:52:04;;;;;;;19.42;12.45;;;;;;;5.86;100.00;102138.09;5093208;28;20106;-50
2022/05/02 04:54:29;;;;;;;19.98;12.48;;;;;;;5.89;100.00;102134.56;5092090;28;20123;-50
2022/05/02 04:56:55;;;;;;;21.17;12.23;;;;;;;5.94;100.00;102131.94;5091888;28;20059;-55
2022/05/02 04:59:20;;;;;;;19.08;11.75;;;;;;;5.97;100.00;102132.81;5056534;28;20409;-54
2022/05/02 05:01:45;;;;;;;18.17;11.85;;;;;;;6.02;100.00;102131.06;5091684;28;20035;-55
2022/05/02 05:04:11;;;;;;;18.35;12.25;;;;;;;6.07;100.00;102139.78;5074958;28;20097;-51
2022/05/02 05:06:36;;;;;;;21.10;12.13;;;;;;;6.11;100.00;102135.38;5073598;28;20024;-53
2022/05/02 05:09:03;;;;;;;18.40;12.32;;;;;;;6.16;100.00;102144.09;5073930;28;20024;-54
2022/05/02 05:11:46;;;;;;;21.88;12.98;;;;;;;6.21;100.00;102144.97;5092064;28;20024;-55
2022/05/02 05:17:15;;;;;;;22.23;12.38;;;;;;;6.39;100.00;102148.38;5086739;28;20038;-51
2022/05/02 05:20:01;;;;;;;18.88;12.43;;;;;;;6.46;100.00;102151.81;5091949;28;20026;-50
2022/05/02 05:22:37;;;;;;;20.05;11.52;;;;;;;6.53;100.00;102137.75;5092484;28;20433;-56
2022/05/02 05:25:27;;;;;;;22.55;13.07;;;;;;;6.58;100.00;102135.97;5112504;28;20055;-56
2022/05/02 05:28:02;;;;;;;21.65;12.48;;;;;;;6.64;100.00;102143.81;5101065;28;20063;-54
2022/05/02 05:30:31;;;;;;;17.55;11.95;;;;;;;6.71;100.00;102140.25;5092004;28;20028;-51
2022/05/02 05:33:08;;;;;;;19.55;12.43;;;;;;;6.80;100.00;102139.28;5074369;28;20036;-52
2022/05/02 05:35:54;;;;;;;20.15;11.93;;;;;;;6.92;100.00;102142.72;5091792;28;20024;-53
2022/05/02 05:38:43;;;;;;;19.10;11.88;;;;;;;7.02;100.00;102142.63;5073587;28;20046;-53
2022/05/02 05:41:29;;;;;;;20.05;12.05;;;;;;;7.11;100.00;102133.78;5091154;28;20035;-55
2022/05/02 05:44:07;;;;;;;21.02;11.68;;;;;;;7.25;100.00;102138.91;5077654;28;20050;-51
2022/05/02 05:47:00;;;;;;;17.80;11.30;;;;;;;7.37;100.00;102137.91;5091739;28;20123;-55
2022/05/02 05:50:05;;;;;;;16.67;11.35;;;;;;;7.46;100.00;102137.78;5091463;28;20111;-55
2022/05/02 05:52:53;;;;;;;19.55;11.98;;;;;;;7.50;100.00;102146.53;5036830;28;20041;-51
2022/05/02 05:55:28;;;;;;;19.80;11.52;;;;;;;7.62;100.00;102150.81;5072724;28;20089;-56
2022/05/02 05:58:20;;;;;;;16.27;10.50;;;;;;;7.69;100.00;102150.72;5091482;28;20035;-53
2022/05/02 06:00:50;;;;;;;18.30;11.32;;;;;;;7.79;100.00;102146.22;5091005;28;20020;-53
2022/05/02 06:03:23;;;;;;;18.10;10.88;;;;;;;7.89;100.00;102149.63;5091161;28;20016;-54
2022/05/02 06:05:49;;;;;;;16.67;11.18;;;;;;;7.97;100.00;102160.94;5092471;28;20039;-52
2022/05/02 06:08:25;;;;;;;15.68;11.48;;;;;;;8.04;99.71;102156.44;5091154;28;20024;-54
2022/05/02 06:10:51;;;;;;;21.13;11.55;;;;;;;8.14;99.26;102149.28;5093921;28;20111;-55
2022/05/02 06:13:18;;;;;;;18.13;11.63;;;;;;;8.17;98.56;102142.22;5088956;28;20023;-54
2022/05/02 06:18:37;;;;;;;17.45;10.48;;;;;;;8.40;97.61;102148.03;5095161;28;20047;-53
2022/05/02 06:21:04;;;;;;;15.38;10.98;;;;;;;8.48;96.98;102155.00;5095123;28;20020;-57
2022/05/02 06:23:35;;;;;;;19.88;10.90;;;;;;;8.57;96.42;102148.69;5076286;28;20031;-55
2022/05/02 06:26:02;;;;;;;16.77;10.85;;;;;;;8.67;95.42;102152.94;5093844;28;20490;-53
2022/05/02 06:28:37;;;;;;;16.77;11.55;;;;;;;8.74;95.15;102152.84;5092538;28;20487;-57
2022/05/02 06:31:04;;;;;;;15.50;11.13;;;;;;;8.79;94.66;102146.59;5092892;28;20132;-56
2022/05/02 06:33:30;;;;;;;17.13;11.55;;;;;;;8.88;93.69;102137.63;5094395;28;20077;-54
2022/05/02 06:36:07;;;;;;;18.25;10.68;;;;;;;8.95;92.80;102151.59;5095805;28;20624;-56
2022/05/02 06:38:50;;;;;;;17.83;11.20;;;;;;;9.10;92.89;102140.78;5094262;28;20475;-51
2022/05/02 06:41:36;;;;;;;17.60;10.60;;;;;;;9.21;91.56;102142.34;5094446;28;20027;-55
2022/05/02 06:44:32;;;;;;;15.32;10.55;;;;;;;9.34;91.75;102147.38;5094190;28;20084;-54
2022/05/02 06:47:34;;;;;;;16.63;10.95;;;;;;;9.47;90.96;102149.81;5095305;28;20106;-55
2022/05/02 06:50:04;;;;;;;15.07;10.25;;;;;;;9.62;90.18;102154.78;5088886;28;20078;-54
2022/05/02 06:52:40;;;;;;;20.20;11.73;;;;;;;9.66;89.39;102147.66;5065503;28;20044;-55
2022/05/02 06:55:24;;;;;;;15.02;10.68;;;;;;;9.77;88.86;102147.44;5075554;28;20066;-55
2022/05/02 06:57:55;;;;;;;17.50;10.82;;;;;;;9.86;88.44;102144.63;5090778;28;20447;-56
2022/05/02 07:00:21;;;;;;;17.73;10.30;;;;;;;9.91;87.86;102141.88;5094838;28;20028;-55
2022/05/02 07:03:13;;;;;;;15.00;10.43;;;;;;;10.07;87.71;102145.06;5092497;28;20036;-55
2022/05/02 07:06:06;;;;;;;13.93;10.50;;;;;;;10.13;87.75;102140.50;5073088;28;20484;-53
2022/05/02 07:08:42;;;;;;;24.65;10.68;;;;;;;10.23;86.47;102149.13;5103167;28;20043;-53
2022/05/02 07:11:12;;;;;;;18.65;11.40;;;;;;;10.33;85.78;102141.81;5109071;28;20496;-55
2022/05/02 07:14:10;;;;;;;16.33;10.68;;;;;;;10.51;85.53;102148.50;5092859;28;20024;-51
2022/05/02 07:16:44;;;;;;;17.15;10.60;;;;;;;10.58;83.97;102138.66;5073318;28;20071;-54
2022/05/02 07:19:31;;;;;;;15.18;9.73;;;;;;;10.70;84.20;102137.47;5079611;28;20036;-56
2022/05/02 07:22:04;;;;;;;14.45;10.20;;;;;;;10.79;82.80;102140.78;5091744;28;20049;-55
2022/05/02 07:24:48;;;;;;;18.08;11.15;;;;;;;10.85;81.40;102141.53;5093132;28;20487;-54
2022/05/02 07:27:42;;;;;;;15.48;10.63;;;;;;;10.95;80.84;102148.34;5093566;28;20144;-51
2022/05/02 07:30:09;;;;;;;16.95;10.38;;;;;;;11.06;80.22;102145.41;5065520;28;20044;-56
2022/05/02 07:32:35;;;;;;;16.85;10.20;;;;;;;11.19;79.12;102140.66;5093640;28;20055;-51
2022/05/02 07:35:01;;;;;;;16.77;9.05;;;;;;;11.23;75.88;102137.88;5058388;28;20032;-53
2022/05/02 07:37:31;;;;;;;17.75;9.80;;;;;;;11.38;76.81;102138.38;5091919;28;20043;-54
2022/05/02 07:39:57;;;;;;;11.45;8.70;;;;;;;11.55;71.79;102144.09;5087386;28;20152;-55
2022/05/02 07:42:25;;;;;;;15.02;9.02;;;;;;;11.63;73.21;102139.41;5075097;28;20049;-54
2022/05/02 07:44:55;;;;;;;14.88;9.18;;;;;;;11.68;73.04;102143.75;5091628;28;20666;-54
2022/05/02 07:47:21;;;;;;;12.80;8.73;;;;;;;11.83;71.89;102145.97;5093014;28;20540;-55
2022/05/02 07:49:48;;;;;;;13.23;8.93;;;;;;;11.98;70.38;102144.66;5093208;28;20123;-54
2022/05/02 07:52:23;;;;;;;14.68;8.93;;;;;;;11.99;69.64;102145.53;5092101;28;20024;-55
2022/05/02 07:54:49;;;;;;;12.05;8.15;;;;;;;12.04;69.95;102143.59;5092675;28;20391;-57
2022/05/02 07:57:16;;;;;;;13.48;9.13;;;;;;;12.14;69.54;102139.75;5075945;28;20415;-56
2022/05/02 07:59:44;;;;;;;12.52;9.10;;;;;;;12.27;68.25;102143.75;5091267;28;20108;-56
2022/05/02 08:02:10;;;;;;;15.52;8.90;;;;;;;12.33;67.20;102139.16;5091363;28;20161;-53
2022/05/02 08:04:40;;;;;;;16.42;9.05;;;;;;;12.40;65.53;102146.91;5092787;28;20048;-55
2022/05/02 08:07:13;;;;;;;13.88;8.90;;;;;;;12.48;65.11;102144.03;5092365;28;20024;-53
2022/05/02 08:09:57;;;;;;;13.80;8.65;;;;;;;12.54;63.77;102135.84;5093897;28;20048;-50
2022/05/02 08:12:30;;;;;;;12.55;8.55;;;;;;;12.69;62.59;102136.28;5073546;28;20076;-51
2022/05/02 08:15:03;;;;;;;11.68;8.57;;;;;;;12.77;61.64;102143.06;5091165;28;20527;-49
2022/05/02 08:18:04;;;;;;;13.77;8.82;;;;;;;12.89;63.13;102135.59;5092359;28;20032;-50
2022/05/02 08:20:42;;;;;;;12.63;8.45;;;;;;;12.95;62.25;102138.03;5059945;28;20035;-52
2022/05/02 08:29:41;;;;;;;15.52;9.18;;;;;;;13.22;61.10;102130.91;5008692;28;20099;-54
2022/05/02 08:32:18;;;;;;;15.52;8.60;;;;;;;13.37;61.63;102144.63;5097193;28;20043;-54
2022/05/02 08:35:09;;;;;;;14.05;8.82;;;;;;;13.41;59.46;102143.59;5092099;28;20023;-54
2022/05/02 08:38:07;;;;;;;12.45;8.95;;;;;;;13.40;59.46;102133.84;5092161;28;20475;-55
2022/05/02 08:40:50;;;;;;;11.80;7.88;;;;;;;13.58;58.55;102137.63;5092387;28;20048;-56
2022/05/02 08:43:45;;;;;;;13.00;9.20;;;;;;;13.60;57.73;102135.78;5092596;28;20029;-55
2022/05/02 08:46:35;;;;;;;13.20;8.88;;;;;;;13.92;57.42;102136.38;5091817;28;20391;-55
2022/05/02 08:49:38;;;;;;;15.02;8.68;;;;;;;14.67;53.86;102134.38;5073504;28;20074;-55
2022/05/02 08:52:09;;;;;;;12.00;7.95;;;;;;;15.99;48.90;102137.50;5084991;28;20100;-55
2022/05/02 08:55:04;;;;;;;12.38;8.35;;;;;;;16.76;45.41;102141.78;5111954;28;20045;-56
2022/05/02 08:57:41;;;;;;;17.60;8.23;;;;;;;17.78;43.05;102138.34;5000035;28;20070;-57
2022/05/02 09:00:28;;;;;;;11.70;8.00;;;;;;;18.24;40.30;102132.25;5078480;28;20118;-54
2022/05/02 09:02:56;;;;;;;11.02;6.80;;;;;;;19.76;35.91;102134.88;5092151;28;20022;-55
2022/05/02 09:05:45;;;;;;;10.48;7.05;;;;;;;19.38;35.60;102127.38;5086960;28;20142;-56
2022/05/02 09:08:34;;;;;;;12.48;6.95;;;;;;;19.94;35.85;102131.03;5070293;28;20031;-58
2022/05/02 09:11:31;;;;;;;11.00;6.63;;;;;;;20.98;35.19;102124.22;5091904;28;20055;-56
2022/05/02 09:14:10;;;;;;;10.50;7.50;;;;;;;21.24;35.06;102122.44;5092773;28;20026;-55
2022/05/02 09:17:03;;;;;;;9.15;6.78;;;;;;;21.65;32.58;102123.22;5077036;28;20036;-57
2022/05/02 09:20:07;;;;;;;10.55;7.82;;;;;;;21.32;32.49;102119.19;5091295;28;20036;-56
2022/05/02 09:23:04;;;;;;;10.48;7.57;;;;;;;21.47;32.63;102119.09;5091088;28;20032;-56
2022/05/02 09:25:49;;;;;;;11.98;7.82;;;;;;;21.44;33.88;102117.47;5090901;28;20039;-55
2022/05/02 09:28:22;;;;;;;12.40;8.20;;;;;;;21.69;33.59;102113.03;5090856;28;20086;-57
2022/05/02 09:31:09;;;;;;;9.27;7.32;;;;;;;22.76;31.96;102108.75;5091737;28;20076;-58
2022/05/02 09:33:54;;;;;;;11.48;8.27;;;;;;;22.77;31.17;102102.38;5083810;28;20024;-58
2022/05/02 09:36:30;;;;;;;12.05;7.88;;;;;;;22.63;31.42;102100.75;5090593;28;20036;-59
2022/05/02 09:39:04;;;;;;;9.13;7.45;;;;;;;21.96;31.78;102098.53;5091126;28;20059;-56
2022/05/02 09:42:06;;;;;;;11.35;7.72;;;;;;;21.29;32.19;102100.53;5091567;28;20063;-56
2022/05/02 09:51:16;;;;;;;11.05;6.82;;;;;;;22.32;31.68;102102.19;5094760;28;20032;-56
2022/05/02 09:54:12;;;;;;;11.93;6.97;;;;;;;22.08;31.18;102108.41;5095419;28;20166;-57
2022/05/02 09:56:46;;;;;;;9.75;6.60;;;;;;;21.81;30.88;102100.53;5093139;28;20036;-57
2022/05/02 09:59:24;;;;;;;9.10;7.20;;;;;;;22.07;33.10;102098.59;5095009;28;20043;-57
2022/05/02 10:02:01;;;;;;;9.23;7.40;;;;;;;22.26;30.71;102098.97;5095147;28;20359;-56
2022/05/02 10:04:32;;;;;;;10.90;7.70;;;;;;;22.52;30.50;102100.69;5094794;28;20039;-56
2022/05/02 10:07:05;;;;;;;9.57;7.30;;;;;;;22.29;31.24;102105.09;5095185;28;20220;-56
2022/05/02 10:09:49;;;;;;;10.50;7.55;;;;;;;22.44;30.83;102101.28;5086751;28;20028;-55
2022/05/02 10:12:26;;;;;;;10.65;7.10;;;;;;;22.38;30.18;102097.22;5093876;28;20035;-57
2022/05/02 10:15:20;;;;;;;15.90;8.23;;;;;;;22.18;32.68;102095.13;5065076;28;20036;-57
2022/05/02 10:18:07;;;;;;;11.35;7.32;;;;;;;22.83;29.32;102092.97;5092413;28;20035;-53
2022/05/02 10:20:55;;;;;;;9.55;7.50;;;;;;;23.20;28.77;102092.81;5094510;28;20055;-56
2022/05/02 10:23:37;;;;;;;11.20;6.45;;;;;;;23.53;27.68;102093.78;5077311;28;20040;-55
2022/05/02 10:26:25;;;;;;;9.18;6.72;;;;;;;22.66;30.11;102087.03;5094481;28;20077;-57
2022/05/02 10:29:30;;;;;;;8.55;6.93;;;;;;;23.08;31.01;102091.91;5110459;28;20035;-57
2022/05/02 10:32:10;;;;;;;9.98;7.10;;;;;;;23.23;27.92;102085.31;5092450;28;20039;-52
2022/05/02 10:34:37;;;;;;;12.95;7.55;;;;;;;23.10;30.68;102081.00;5094427;28;20053;-56
2022/05/02 10:37:07;;;;;;;9.25;6.95;;;;;;;22.77;28.91;102082.63;5095234;28;20024;-56
2022/05/02 10:39:44;;;;;;;12.10;7.47;;;;;;;22.53;28.84;102086.22;5094613;28;20490;-57
2022/05/02 10:42:12;;;;;;;10.52;7.05;;;;;;;22.36;30.34;102085.66;5094638;28;20415;-57
2022/05/02 10:44:45;;;;;;;9.18;7.30;;;;;;;23.13;29.77;102084.28;5093381;28;20036;-56
2022/05/02 10:47:14;;;;;;;10.88;7.95;;;;;;;23.53;29.11;102083.88;5094114;28;20032;-56
2022/05/02 10:49:53;;;;;;;9.63;7.65;;;;;;;23.34;27.76;102076.38;5111229;28;20027;-55
2022/05/02 10:52:46;;;;;;;9.73;7.68;;;;;;;23.52;26.85;102087.53;5093612;28;20060;-57
2022/05/02 10:55:26;;;;;;;10.90;7.93;;;;;;;22.97;28.29;102084.66;5094026;28;20027;-54
2022/05/02 10:57:54;;;;;;;9.40;6.93;;;;;;;22.91;29.54;102080.56;5072709;28;20028;-54
2022/05/02 11:00:20;;;;;;;10.32;7.38;;;;;;;23.37;27.42;102076.09;5073921;28;20081;-55
2022/05/02 11:02:46;;;;;;;9.80;7.25;;;;;;;23.16;28.34;102075.13;5073557;28;20036;-53
2022/05/02 11:05:16;;;;;;;9.23;6.95;;;;;;;23.89;28.39;102081.00;5094178;28;20020;-54
2022/05/02 11:07:41;;;;;;;12.75;7.75;;;;;;;23.78;26.29;102081.00;5107954;28;20024;-56
2022/05/02 11:10:10;;;;;;;8.70;6.53;;;;;;;23.57;25.98;102070.97;5098674;28;20074;-59
2022/05/02 11:12:45;;;;;;;10.35;6.75;;;;;;;22.74;26.20;102079.19;5075982;28;20278;-55
2022/05/02 11:15:18;;;;;;;8.68;6.53;;;;;;;21.98;27.65;102078.56;5092781;28;20024;-55
2022/05/02 11:18:09;;;;;;;8.88;6.75;;;;;;;22.38;27.62;102063.97;5089999;28;20061;-54
2022/05/02 11:20:42;;;;;;;;;;;;;;;21.34;29.04;102073.28;5086004;28;20036;-57
2022/05/02 11:23:44;;;;;;;11.95;6.82;;;;;;;21.91;28.13;102067.38;5093212;28;19954;-56
2022/05/02 11:26:27;;;;;;;9.45;7.03;;;;;;;22.65;28.78;102063.69;5092452;28;20024;-56
2022/05/02 11:29:05;;;;;;;11.55;7.57;;;;;;;23.49;26.09;102055.38;5094137;28;20196;-55
2022/05/02 11:31:33;;;;;;;9.82;6.72;;;;;;;23.34;27.37;102057.44;5066081;28;20399;-56
2022/05/02 11:34:07;;;;;;;9.52;6.43;;;;;;;23.05;26.38;102057.88;5093400;28;20481;-54
2022/05/02 11:36:43;;;;;;;9.23;6.43;;;;;;;22.54;26.74;102058.25;5092772;28;20024;-56
2022/05/02 11:39:10;;;;;;;9.50;6.88;;;;;;;22.99;27.04;102057.50;5093847;28;20024;-56
2022/05/02 11:41:47;;;;;;;10.23;7.00;;;;;;;23.08;27.52;102057.66;5104216;28;20024;-56
2022/05/02 11:44:13;;;;;;;12.20;8.40;;;;;;;22.49;28.42;102057.75;5092811;28;20058;-54
2022/05/02 11:47:15;;;;;;;9.68;7.32;;;;;;;22.37;29.14;102049.63;5092919;28;20035;-56
2022/05/02 11:50:06;;;;;;;8.23;6.47;;;;;;;23.56;27.33;102053.00;5079130;28;20039;-54
2022/05/02 11:52:38;;;;;;;11.60;8.73;;;;;;;23.15;28.07;102054.50;5084845;28;20303;-53
2022/05/02 11:55:07;;;;;;;10.43;7.30;;;;;;;23.23;27.33;102046.63;5093319;28;20024;-54
2022/05/02 11:57:38;;;;;;;10.10;7.18;;;;;;;23.20;27.39;102050.44;5074532;28;20149;-56
2022/05/02 12:00:14;;;;;;;9.35;7.32;;;;;;;23.19;27.50;102048.72;5100641;28;20110;-55
2022/05/02 12:02:46;;;;;;;10.23;7.55;;;;;;;23.06;26.30;102043.41;5074918;28;20035;-56